sensor_id;sensor_type;location;lat;lon;timestamp;temperature;humidity
39347;DHT22;26262;49.836;6.632;2024-02-23T00:01:05;5.50;99.90
39347;DHT22;26262;49.836;6.632;2024-02-23T00:03:32;5.50;99.90
39347;DHT22;26262;49.836;6.632;2024-02-23T00:05:59;5.50;99.90
39347;DHT22;26262;49.836;6.632;2024-02-23T00:08:24;5.50;99.90
39347;DHT22;26262;49.836;6.632;2024-02-23T00:10:50;5.50;99.90
39347;DHT22;26262;49.836;6.632;2024-02-23T00:13:15;5.30;99.90
39347;DHT22;26262;49.836;6.632;2024-02-23T00:15:41;5.20;99.90
39347;DHT22;26262;49.836;6.632;2024-02-23T00:18:06;5.20;99.90
39347;DHT22;26262;49.836;6.632;2024-02-23T00:20:33;5.30;99.90
39347;DHT22;26262;49.836;6.632;2024-02-23T00:22:59;5.20;99.90
39347;DHT22;26262;49.836;6.632;2024-02-23T00:25:24;5.20;99.90
39347;DHT22;26262;49.836;6.632;2024-02-23T00:27:50;5.20;99.90
39347;DHT22;26262;49.836;6.632;2024-02-23T00:30:15;5.20;99.90
39347;DHT22;26262;49.836;6.632;2024-02-23T00:32:41;5.20;99.90
39347;DHT22;26262;49.836;6.632;2024-02-23T00:35:07;5.20;99.90
39347;DHT22;26262;49.836;6.632;2024-02-23T00:37:32;5.20;99.90
39347;DHT22;26262;49.836;6.632;2024-02-23T00:40:04;5.30;99.90
39347;DHT22;26262;49.836;6.632;2024-02-23T00:42:31;5.30;99.90
39347;DHT22;26262;49.836;6.632;2024-02-23T00:44:56;5.40;99.90
39347;DHT22;26262;49.836;6.632;2024-02-23T00:47:22;5.50;99.90
39347;DHT22;26262;49.836;6.632;2024-02-23T00:49:47;5.50;99.90
39347;DHT22;26262;49.836;6.632;2024-02-23T00:52:14;5.40;99.90
39347;DHT22;26262;49.836;6.632;2024-02-23T00:54:40;5.50;99.90
39347;DHT22;26262;49.836;6.632;2024-02-23T00:57:05;5.40;99.90
39347;DHT22;26262;49.836;6.632;2024-02-23T00:59:31;5.40;99.90
39347;DHT22;26262;49.836;6.632;2024-02-23T01:01:57;5.40;99.90
39347;DHT22;26262;49.836;6.632;2024-02-23T01:04:23;5.50;99.90
39347;DHT22;26262;49.836;6.632;2024-02-23T01:06:48;5.50;99.90
39347;DHT22;26262;49.836;6.632;2024-02-23T01:09:14;5.50;99.90
39347;DHT22;26262;49.836;6.632;2024-02-23T01:11:42;5.50;99.90
39347;DHT22;26262;49.836;6.632;2024-02-23T01:14:07;5.40;99.90
39347;DHT22;26262;49.836;6.632;2024-02-23T01:16:33;5.30;99.90
39347;DHT22;26262;49.836;6.632;2024-02-23T01:18:59;5.20;99.90
39347;DHT22;26262;49.836;6.632;2024-02-23T01:21:24;5.20;99.90
39347;DHT22;26262;49.836;6.632;2024-02-23T01:23:50;5.20;99.90
39347;DHT22;26262;49.836;6.632;2024-02-23T01:26:15;5.30;99.90
39347;DHT22;26262;49.836;6.632;2024-02-23T01:28:41;5.30;99.90
39347;DHT22;26262;49.836;6.632;2024-02-23T01:31:09;5.40;99.90
39347;DHT22;26262;49.836;6.632;2024-02-23T01:33:39;5.40;99.90
39347;DHT22;26262;49.836;6.632;2024-02-23T01:36:05;5.40;99.90
39347;DHT22;26262;49.836;6.632;2024-02-23T01:38:31;5.40;99.90
39347;DHT22;26262;49.836;6.632;2024-02-23T01:40:58;5.30;99.90
39347;DHT22;26262;49.836;6.632;2024-02-23T01:43:24;5.40;99.90
39347;DHT22;26262;49.836;6.632;2024-02-23T01:45:49;5.40;99.90
39347;DHT22;26262;49.836;6.632;2024-02-23T01:48:16;5.40;99.90
39347;DHT22;26262;49.836;6.632;2024-02-23T01:50:42;5.40;99.90
39347;DHT22;26262;49.836;6.632;2024-02-23T01:53:08;5.40;99.90
39347;DHT22;26262;49.836;6.632;2024-02-23T01:55:36;5.50;99.90
39347;DHT22;26262;49.836;6.632;2024-02-23T01:58:02;5.40;99.90
39347;DHT22;26262;49.836;6.632;2024-02-23T02:00:29;5.40;99.90
39347;DHT22;26262;49.836;6.632;2024-02-23T02:02:55;5.40;99.90
39347;DHT22;26262;49.836;6.632;2024-02-23T02:05:21;5.50;99.90
39347;DHT22;26262;49.836;6.632;2024-02-23T02:07:47;5.40;99.90
39347;DHT22;26262;49.836;6.632;2024-02-23T02:10:16;5.50;99.90
39347;DHT22;26262;49.836;6.632;2024-02-23T02:12:42;5.40;99.90
39347;DHT22;26262;49.836;6.632;2024-02-23T02:15:08;5.40;99.90
39347;DHT22;26262;49.836;6.632;2024-02-23T02:17:34;5.30;99.90
39347;DHT22;26262;49.836;6.632;2024-02-23T02:20:02;5.30;99.90
39347;DHT22;26262;49.836;6.632;2024-02-23T02:22:31;5.40;99.90
39347;DHT22;26262;49.836;6.632;2024-02-23T02:24:57;5.50;99.90
39347;DHT22;26262;49.836;6.632;2024-02-23T02:27:23;5.60;99.90
39347;DHT22;26262;49.836;6.632;2024-02-23T02:29:50;5.50;99.90
39347;DHT22;26262;49.836;6.632;2024-02-23T02:32:16;5.50;99.90
39347;DHT22;26262;49.836;6.632;2024-02-23T02:34:42;5.40;99.90
39347;DHT22;26262;49.836;6.632;2024-02-23T02:37:08;5.50;99.90
39347;DHT22;26262;49.836;6.632;2024-02-23T02:39:34;5.40;99.90
39347;DHT22;26262;49.836;6.632;2024-02-23T02:41:59;5.50;99.90
39347;DHT22;26262;49.836;6.632;2024-02-23T02:44:25;5.40;99.90
39347;DHT22;26262;49.836;6.632;2024-02-23T02:46:56;5.40;99.90
39347;DHT22;26262;49.836;6.632;2024-02-23T02:49:21;5.40;99.90
39347;DHT22;26262;49.836;6.632;2024-02-23T02:51:47;5.40;99.90
39347;DHT22;26262;49.836;6.632;2024-02-23T02:54:12;5.30;99.90
39347;DHT22;26262;49.836;6.632;2024-02-23T02:56:42;5.30;99.90
39347;DHT22;26262;49.836;6.632;2024-02-23T02:59:09;5.30;99.90
39347;DHT22;26262;49.836;6.632;2024-02-23T03:01:35;5.30;99.90
39347;DHT22;26262;49.836;6.632;2024-02-23T03:04:01;5.20;99.90
39347;DHT22;26262;49.836;6.632;2024-02-23T03:06:26;5.20;99.90
39347;DHT22;26262;49.836;6.632;2024-02-23T03:08:52;5.20;99.90
39347;DHT22;26262;49.836;6.632;2024-02-23T03:11:17;5.20;99.90
39347;DHT22;26262;49.836;6.632;2024-02-23T03:13:43;5.20;99.90
39347;DHT22;26262;49.836;6.632;2024-02-23T03:16:16;5.20;99.90
39347;DHT22;26262;49.836;6.632;2024-02-23T03:18:41;5.10;99.90
39347;DHT22;26262;49.836;6.632;2024-02-23T03:21:07;5.20;99.90
39347;DHT22;26262;49.836;6.632;2024-02-23T03:23:35;5.30;99.90
39347;DHT22;26262;49.836;6.632;2024-02-23T03:26:00;5.20;99.90
39347;DHT22;26262;49.836;6.632;2024-02-23T03:28:26;5.20;99.90
39347;DHT22;26262;49.836;6.632;2024-02-23T03:30:52;5.20;99.90
39347;DHT22;26262;49.836;6.632;2024-02-23T03:33:17;5.20;99.90
39347;DHT22;26262;49.836;6.632;2024-02-23T03:35:43;5.20;99.90
39347;DHT22;26262;49.836;6.632;2024-02-23T03:38:09;5.10;99.90
39347;DHT22;26262;49.836;6.632;2024-02-23T03:40:34;5.20;99.90
39347;DHT22;26262;49.836;6.632;2024-02-23T03:43:01;5.20;99.90
39347;DHT22;26262;49.836;6.632;2024-02-23T03:45:27;5.10;99.90
39347;DHT22;26262;49.836;6.632;2024-02-23T03:47:53;5.10;99.90
39347;DHT22;26262;49.836;6.632;2024-02-23T03:50:19;5.10;99.90
39347;DHT22;26262;49.836;6.632;2024-02-23T03:52:45;5.10;99.90
39347;DHT22;26262;49.836;6.632;2024-02-23T03:55:11;5.00;99.90
39347;DHT22;26262;49.836;6.632;2024-02-23T03:57:37;5.00;99.90
39347;DHT22;26262;49.836;6.632;2024-02-23T04:00:03;5.00;99.90
39347;DHT22;26262;49.836;6.632;2024-02-23T04:02:29;5.00;99.90
39347;DHT22;26262;49.836;6.632;2024-02-23T04:04:55;5.00;99.90
39347;DHT22;26262;49.836;6.632;2024-02-23T04:07:20;4.90;99.90
39347;DHT22;26262;49.836;6.632;2024-02-23T04:09:46;4.90;99.90
39347;DHT22;26262;49.836;6.632;2024-02-23T04:12:18;4.80;99.90
39347;DHT22;26262;49.836;6.632;2024-02-23T04:14:44;4.70;99.90
39347;DHT22;26262;49.836;6.632;2024-02-23T04:17:11;4.70;99.90
39347;DHT22;26262;49.836;6.632;2024-02-23T04:19:37;4.70;99.90
39347;DHT22;26262;49.836;6.632;2024-02-23T04:22:03;4.80;99.90
39347;DHT22;26262;49.836;6.632;2024-02-23T04:24:29;4.80;99.90
39347;DHT22;26262;49.836;6.632;2024-02-23T04:26:55;4.80;99.90
39347;DHT22;26262;49.836;6.632;2024-02-23T04:29:20;4.70;99.90
39347;DHT22;26262;49.836;6.632;2024-02-23T04:31:46;4.70;99.90
39347;DHT22;26262;49.836;6.632;2024-02-23T04:34:11;4.70;99.90
39347;DHT22;26262;49.836;6.632;2024-02-23T04:36:37;4.70;99.90
39347;DHT22;26262;49.836;6.632;2024-02-23T04:39:02;4.70;99.90
39347;DHT22;26262;49.836;6.632;2024-02-23T04:41:28;4.70;99.90
39347;DHT22;26262;49.836;6.632;2024-02-23T04:43:53;4.80;99.90
39347;DHT22;26262;49.836;6.632;2024-02-23T04:46:25;4.80;99.90
39347;DHT22;26262;49.836;6.632;2024-02-23T04:48:51;4.80;99.90
39347;DHT22;26262;49.836;6.632;2024-02-23T04:51:16;4.70;99.90
39347;DHT22;26262;49.836;6.632;2024-02-23T04:53:42;4.60;99.90
39347;DHT22;26262;49.836;6.632;2024-02-23T04:56:08;4.60;99.90
39347;DHT22;26262;49.836;6.632;2024-02-23T04:58:33;4.70;99.90
39347;DHT22;26262;49.836;6.632;2024-02-23T05:00:59;4.80;99.90
39347;DHT22;26262;49.836;6.632;2024-02-23T05:03:25;4.80;99.90
39347;DHT22;26262;49.836;6.632;2024-02-23T05:05:50;4.80;99.90
39347;DHT22;26262;49.836;6.632;2024-02-23T05:08:19;4.90;99.90
39347;DHT22;26262;49.836;6.632;2024-02-23T05:10:46;4.90;99.90
39347;DHT22;26262;49.836;6.632;2024-02-23T05:13:12;4.90;99.90
39347;DHT22;26262;49.836;6.632;2024-02-23T05:15:38;4.90;99.90
39347;DHT22;26262;49.836;6.632;2024-02-23T05:18:04;4.90;99.90
39347;DHT22;26262;49.836;6.632;2024-02-23T05:20:29;4.90;99.90
39347;DHT22;26262;49.836;6.632;2024-02-23T05:22:55;4.80;99.90
39347;DHT22;26262;49.836;6.632;2024-02-23T05:25:21;4.80;99.90
39347;DHT22;26262;49.836;6.632;2024-02-23T05:27:46;4.80;99.90
39347;DHT22;26262;49.836;6.632;2024-02-23T05:30:12;4.90;99.90
39347;DHT22;26262;49.836;6.632;2024-02-23T05:32:38;4.80;99.90
39347;DHT22;26262;49.836;6.632;2024-02-23T05:35:04;4.70;99.90
39347;DHT22;26262;49.836;6.632;2024-02-23T05:37:29;4.80;99.90
39347;DHT22;26262;49.836;6.632;2024-02-23T05:39:55;4.90;99.90
39347;DHT22;26262;49.836;6.632;2024-02-23T05:42:21;4.90;99.90
39347;DHT22;26262;49.836;6.632;2024-02-23T05:44:46;4.90;99.90
39347;DHT22;26262;49.836;6.632;2024-02-23T05:47:13;4.90;99.90
39347;DHT22;26262;49.836;6.632;2024-02-23T05:49:39;4.80;99.90
39347;DHT22;26262;49.836;6.632;2024-02-23T05:52:05;4.80;99.90
39347;DHT22;26262;49.836;6.632;2024-02-23T05:54:30;4.80;99.90
39347;DHT22;26262;49.836;6.632;2024-02-23T05:56:56;4.80;99.90
39347;DHT22;26262;49.836;6.632;2024-02-23T05:59:22;4.90;99.90
39347;DHT22;26262;49.836;6.632;2024-02-23T06:01:47;4.90;99.90
39347;DHT22;26262;49.836;6.632;2024-02-23T06:04:13;4.90;99.90
39347;DHT22;26262;49.836;6.632;2024-02-23T06:06:42;4.80;99.90
39347;DHT22;26262;49.836;6.632;2024-02-23T06:09:08;4.80;99.90
39347;DHT22;26262;49.836;6.632;2024-02-23T06:11:35;4.80;99.90
39347;DHT22;26262;49.836;6.632;2024-02-23T06:14:00;4.80;99.90
39347;DHT22;26262;49.836;6.632;2024-02-23T06:16:26;4.80;99.90
39347;DHT22;26262;49.836;6.632;2024-02-23T06:18:51;4.80;99.90
39347;DHT22;26262;49.836;6.632;2024-02-23T06:21:17;4.60;99.90
39347;DHT22;26262;49.836;6.632;2024-02-23T06:23:43;4.60;99.90
39347;DHT22;26262;49.836;6.632;2024-02-23T06:26:09;4.60;99.90
39347;DHT22;26262;49.836;6.632;2024-02-23T06:28:35;4.60;99.90
39347;DHT22;26262;49.836;6.632;2024-02-23T06:31:03;4.80;99.90
39347;DHT22;26262;49.836;6.632;2024-02-23T06:33:30;4.80;99.90
39347;DHT22;26262;49.836;6.632;2024-02-23T06:35:56;4.80;99.90
39347;DHT22;26262;49.836;6.632;2024-02-23T06:38:21;4.80;99.90
39347;DHT22;26262;49.836;6.632;2024-02-23T06:40:47;4.80;99.90
39347;DHT22;26262;49.836;6.632;2024-02-23T06:43:13;4.70;99.90
39347;DHT22;26262;49.836;6.632;2024-02-23T06:45:38;4.80;99.90
39347;DHT22;26262;49.836;6.632;2024-02-23T06:48:07;4.80;99.90
39347;DHT22;26262;49.836;6.632;2024-02-23T06:50:33;4.80;99.90
39347;DHT22;26262;49.836;6.632;2024-02-23T06:52:58;4.90;99.90
39347;DHT22;26262;49.836;6.632;2024-02-23T06:55:24;4.90;99.90
39347;DHT22;26262;49.836;6.632;2024-02-23T06:57:49;5.00;99.90
39347;DHT22;26262;49.836;6.632;2024-02-23T07:00:15;4.90;99.90
39347;DHT22;26262;49.836;6.632;2024-02-23T07:02:41;5.00;99.90
39347;DHT22;26262;49.836;6.632;2024-02-23T07:05:07;5.00;99.90
39347;DHT22;26262;49.836;6.632;2024-02-23T07:07:34;5.00;99.90
39347;DHT22;26262;49.836;6.632;2024-02-23T07:10:00;5.00;99.90
39347;DHT22;26262;49.836;6.632;2024-02-23T07:12:25;5.00;99.90
39347;DHT22;26262;49.836;6.632;2024-02-23T07:14:55;5.00;99.90
39347;DHT22;26262;49.836;6.632;2024-02-23T07:17:20;5.10;99.90
39347;DHT22;26262;49.836;6.632;2024-02-23T07:19:46;5.10;99.90
39347;DHT22;26262;49.836;6.632;2024-02-23T07:22:12;5.20;99.90
39347;DHT22;26262;49.836;6.632;2024-02-23T07:24:42;5.20;99.90
39347;DHT22;26262;49.836;6.632;2024-02-23T07:27:07;5.30;99.90
39347;DHT22;26262;49.836;6.632;2024-02-23T07:29:33;5.30;99.90
39347;DHT22;26262;49.836;6.632;2024-02-23T07:31:58;5.30;99.90
39347;DHT22;26262;49.836;6.632;2024-02-23T07:34:24;5.20;99.90
39347;DHT22;26262;49.836;6.632;2024-02-23T07:36:53;5.30;99.90
39347;DHT22;26262;49.836;6.632;2024-02-23T07:39:19;5.30;99.90
39347;DHT22;26262;49.836;6.632;2024-02-23T07:41:45;5.40;99.90
39347;DHT22;26262;49.836;6.632;2024-02-23T07:44:11;5.40;99.90
39347;DHT22;26262;49.836;6.632;2024-02-23T07:46:37;5.40;99.90
39347;DHT22;26262;49.836;6.632;2024-02-23T07:49:03;5.40;99.90
39347;DHT22;26262;49.836;6.632;2024-02-23T07:51:29;5.50;99.90
39347;DHT22;26262;49.836;6.632;2024-02-23T07:53:55;5.50;99.90
39347;DHT22;26262;49.836;6.632;2024-02-23T07:56:20;5.50;99.90
39347;DHT22;26262;49.836;6.632;2024-02-23T07:58:46;5.40;99.90
39347;DHT22;26262;49.836;6.632;2024-02-23T08:01:12;5.50;99.90
39347;DHT22;26262;49.836;6.632;2024-02-23T08:03:39;5.60;99.90
39347;DHT22;26262;49.836;6.632;2024-02-23T08:06:05;5.50;99.90
39347;DHT22;26262;49.836;6.632;2024-02-23T08:08:31;5.50;99.90
39347;DHT22;26262;49.836;6.632;2024-02-23T08:11:00;5.50;99.90
39347;DHT22;26262;49.836;6.632;2024-02-23T08:13:26;5.60;99.90
39347;DHT22;26262;49.836;6.632;2024-02-23T08:15:51;5.60;99.90
39347;DHT22;26262;49.836;6.632;2024-02-23T08:18:17;5.70;99.90
39347;DHT22;26262;49.836;6.632;2024-02-23T08:20:42;5.80;99.90
39347;DHT22;26262;49.836;6.632;2024-02-23T08:23:08;5.90;99.90
39347;DHT22;26262;49.836;6.632;2024-02-23T08:25:35;5.90;99.90
39347;DHT22;26262;49.836;6.632;2024-02-23T08:28:01;5.90;99.90
39347;DHT22;26262;49.836;6.632;2024-02-23T08:30:27;5.90;99.90
39347;DHT22;26262;49.836;6.632;2024-02-23T08:32:52;5.90;99.90
39347;DHT22;26262;49.836;6.632;2024-02-23T08:35:18;5.90;99.90
39347;DHT22;26262;49.836;6.632;2024-02-23T08:37:44;6.00;99.90
39347;DHT22;26262;49.836;6.632;2024-02-23T08:40:10;6.00;99.90
39347;DHT22;26262;49.836;6.632;2024-02-23T08:42:35;6.00;99.90
39347;DHT22;26262;49.836;6.632;2024-02-23T08:45:01;6.10;99.90
39347;DHT22;26262;49.836;6.632;2024-02-23T08:47:27;6.00;99.90
39347;DHT22;26262;49.836;6.632;2024-02-23T08:49:58;6.10;99.90
39347;DHT22;26262;49.836;6.632;2024-02-23T08:52:23;6.10;99.90
39347;DHT22;26262;49.836;6.632;2024-02-23T08:54:49;6.20;99.90
39347;DHT22;26262;49.836;6.632;2024-02-23T08:57:14;6.10;99.90
39347;DHT22;26262;49.836;6.632;2024-02-23T08:59:44;6.10;99.90
39347;DHT22;26262;49.836;6.632;2024-02-23T09:02:10;6.20;99.90
39347;DHT22;26262;49.836;6.632;2024-02-23T09:04:36;6.20;99.90
39347;DHT22;26262;49.836;6.632;2024-02-23T09:07:01;6.20;99.90
39347;DHT22;26262;49.836;6.632;2024-02-23T09:09:27;6.20;99.90
39347;DHT22;26262;49.836;6.632;2024-02-23T09:11:52;6.20;99.90
39347;DHT22;26262;49.836;6.632;2024-02-23T09:14:18;6.20;99.90
39347;DHT22;26262;49.836;6.632;2024-02-23T09:16:44;6.10;99.90
39347;DHT22;26262;49.836;6.632;2024-02-23T09:19:11;6.20;99.90
39347;DHT22;26262;49.836;6.632;2024-02-23T09:21:37;6.30;99.90
39347;DHT22;26262;49.836;6.632;2024-02-23T09:24:03;6.40;99.90
39347;DHT22;26262;49.836;6.632;2024-02-23T09:26:29;6.50;99.90
39347;DHT22;26262;49.836;6.632;2024-02-23T09:28:54;6.60;99.90
39347;DHT22;26262;49.836;6.632;2024-02-23T09:31:20;6.60;99.90
39347;DHT22;26262;49.836;6.632;2024-02-23T09:33:45;6.70;99.90
39347;DHT22;26262;49.836;6.632;2024-02-23T09:36:12;6.70;99.90
39347;DHT22;26262;49.836;6.632;2024-02-23T09:38:37;6.70;99.90
39347;DHT22;26262;49.836;6.632;2024-02-23T09:41:03;6.70;99.90
39347;DHT22;26262;49.836;6.632;2024-02-23T09:43:29;6.70;99.90
39347;DHT22;26262;49.836;6.632;2024-02-23T09:45:59;6.70;99.90
39347;DHT22;26262;49.836;6.632;2024-02-23T09:48:25;6.80;99.90
39347;DHT22;26262;49.836;6.632;2024-02-23T09:50:52;6.80;99.90
39347;DHT22;26262;49.836;6.632;2024-02-23T09:53:19;6.70;99.90
39347;DHT22;26262;49.836;6.632;2024-02-23T09:55:45;6.70;99.90
39347;DHT22;26262;49.836;6.632;2024-02-23T09:58:14;6.80;99.90
39347;DHT22;26262;49.836;6.632;2024-02-23T10:00:42;6.70;99.90
39347;DHT22;26262;49.836;6.632;2024-02-23T10:03:08;6.70;99.90
39347;DHT22;26262;49.836;6.632;2024-02-23T10:05:34;6.70;99.90
39347;DHT22;26262;49.836;6.632;2024-02-23T10:08:00;6.70;99.90
39347;DHT22;26262;49.836;6.632;2024-02-23T10:10:35;6.80;99.90
39347;DHT22;26262;49.836;6.632;2024-02-23T10:13:01;6.80;99.90
39347;DHT22;26262;49.836;6.632;2024-02-23T10:15:29;6.80;99.90
39347;DHT22;26262;49.836;6.632;2024-02-23T10:17:54;6.80;99.90
39347;DHT22;26262;49.836;6.632;2024-02-23T10:20:20;6.80;99.90
39347;DHT22;26262;49.836;6.632;2024-02-23T10:22:45;6.80;99.90
39347;DHT22;26262;49.836;6.632;2024-02-23T10:25:12;6.80;99.90
39347;DHT22;26262;49.836;6.632;2024-02-23T10:27:37;6.90;99.90
39347;DHT22;26262;49.836;6.632;2024-02-23T10:30:03;6.90;99.90
39347;DHT22;26262;49.836;6.632;2024-02-23T10:32:30;6.90;99.90
39347;DHT22;26262;49.836;6.632;2024-02-23T10:35:00;6.90;99.90
39347;DHT22;26262;49.836;6.632;2024-02-23T10:37:26;6.90;99.90
39347;DHT22;26262;49.836;6.632;2024-02-23T10:39:55;6.90;99.90
39347;DHT22;26262;49.836;6.632;2024-02-23T10:42:23;6.90;99.90
39347;DHT22;26262;49.836;6.632;2024-02-23T10:44:50;7.00;99.90
39347;DHT22;26262;49.836;6.632;2024-02-23T10:47:16;7.10;99.90
39347;DHT22;26262;49.836;6.632;2024-02-23T10:49:44;7.20;99.90
39347;DHT22;26262;49.836;6.632;2024-02-23T10:52:10;7.20;99.90
39347;DHT22;26262;49.836;6.632;2024-02-23T10:54:38;7.10;99.90
39347;DHT22;26262;49.836;6.632;2024-02-23T10:57:04;7.10;99.90
39347;DHT22;26262;49.836;6.632;2024-02-23T10:59:30;7.10;99.90
39347;DHT22;26262;49.836;6.632;2024-02-23T11:01:57;7.30;99.90
39347;DHT22;26262;49.836;6.632;2024-02-23T11:04:25;7.50;99.90
39347;DHT22;26262;49.836;6.632;2024-02-23T11:06:54;8.40;99.90
39347;DHT22;26262;49.836;6.632;2024-02-23T11:09:24;8.80;99.90
39347;DHT22;26262;49.836;6.632;2024-02-23T11:11:57;9.20;99.90
39347;DHT22;26262;49.836;6.632;2024-02-23T11:14:36;9.00;99.90
39347;DHT22;26262;49.836;6.632;2024-02-23T11:17:03;9.00;99.90
39347;DHT22;26262;49.836;6.632;2024-02-23T11:19:39;9.00;99.90
39347;DHT22;26262;49.836;6.632;2024-02-23T11:22:08;8.60;99.90
39347;DHT22;26262;49.836;6.632;2024-02-23T11:24:42;8.60;99.90
39347;DHT22;26262;49.836;6.632;2024-02-23T11:27:14;8.40;99.90
39347;DHT22;26262;49.836;6.632;2024-02-23T11:29:39;8.10;99.90
39347;DHT22;26262;49.836;6.632;2024-02-23T11:32:13;7.90;99.90
39347;DHT22;26262;49.836;6.632;2024-02-23T11:34:39;7.60;99.90
39347;DHT22;26262;49.836;6.632;2024-02-23T11:37:11;7.30;99.90
39347;DHT22;26262;49.836;6.632;2024-02-23T11:39:39;7.20;99.90
39347;DHT22;26262;49.836;6.632;2024-02-23T11:42:06;7.00;99.90
39347;DHT22;26262;49.836;6.632;2024-02-23T11:44:31;6.70;99.90
39347;DHT22;26262;49.836;6.632;2024-02-23T11:46:58;6.70;99.90
39347;DHT22;26262;49.836;6.632;2024-02-23T11:49:31;6.60;99.90
39347;DHT22;26262;49.836;6.632;2024-02-23T11:51:57;6.50;99.90
39347;DHT22;26262;49.836;6.632;2024-02-23T11:54:22;6.50;99.90
39347;DHT22;26262;49.836;6.632;2024-02-23T11:56:49;6.40;99.90
39347;DHT22;26262;49.836;6.632;2024-02-23T11:59:15;6.30;99.90
39347;DHT22;26262;49.836;6.632;2024-02-23T12:01:41;6.20;99.90
39347;DHT22;26262;49.836;6.632;2024-02-23T12:04:07;6.20;99.90
39347;DHT22;26262;49.836;6.632;2024-02-23T12:06:33;6.20;99.90
39347;DHT22;26262;49.836;6.632;2024-02-23T12:09:00;6.20;99.90
39347;DHT22;26262;49.836;6.632;2024-02-23T12:11:26;6.40;99.90
39347;DHT22;26262;49.836;6.632;2024-02-23T12:13:51;7.40;99.90
39347;DHT22;26262;49.836;6.632;2024-02-23T12:16:17;8.30;99.90
39347;DHT22;26262;49.836;6.632;2024-02-23T12:18:43;9.30;99.90
39347;DHT22;26262;49.836;6.632;2024-02-23T12:21:09;9.70;99.90
39347;DHT22;26262;49.836;6.632;2024-02-23T12:23:45;9.90;99.90
39347;DHT22;26262;49.836;6.632;2024-02-23T12:26:13;9.50;99.90
39347;DHT22;26262;49.836;6.632;2024-02-23T12:28:39;9.10;99.90
39347;DHT22;26262;49.836;6.632;2024-02-23T12:31:05;8.90;99.90
39347;DHT22;26262;49.836;6.632;2024-02-23T12:33:33;8.80;99.90
39347;DHT22;26262;49.836;6.632;2024-02-23T12:36:00;8.80;99.90
39347;DHT22;26262;49.836;6.632;2024-02-23T12:38:25;8.70;99.90
39347;DHT22;26262;49.836;6.632;2024-02-23T12:40:51;8.60;99.90
39347;DHT22;26262;49.836;6.632;2024-02-23T12:43:17;8.40;99.90
39347;DHT22;26262;49.836;6.632;2024-02-23T12:45:43;8.30;99.90
39347;DHT22;26262;49.836;6.632;2024-02-23T12:48:17;8.50;99.90
39347;DHT22;26262;49.836;6.632;2024-02-23T12:50:43;9.20;99.90
39347;DHT22;26262;49.836;6.632;2024-02-23T12:53:40;9.60;99.90
39347;DHT22;26262;49.836;6.632;2024-02-23T12:56:11;10.00;99.90
39347;DHT22;26262;49.836;6.632;2024-02-23T12:58:40;9.80;99.90
39347;DHT22;26262;49.836;6.632;2024-02-23T13:01:07;9.70;99.90
39347;DHT22;26262;49.836;6.632;2024-02-23T13:03:34;10.20;99.90
39347;DHT22;26262;49.836;6.632;2024-02-23T13:06:00;10.40;99.90
39347;DHT22;26262;49.836;6.632;2024-02-23T13:08:26;10.20;99.90
39347;DHT22;26262;49.836;6.632;2024-02-23T13:10:53;9.90;99.90
39347;DHT22;26262;49.836;6.632;2024-02-23T13:13:19;9.50;99.90
39347;DHT22;26262;49.836;6.632;2024-02-23T13:15:45;9.00;99.90
39347;DHT22;26262;49.836;6.632;2024-02-23T13:18:12;8.70;99.90
39347;DHT22;26262;49.836;6.632;2024-02-23T13:20:38;9.10;99.90
39347;DHT22;26262;49.836;6.632;2024-02-23T13:23:05;9.90;99.90
39347;DHT22;26262;49.836;6.632;2024-02-23T13:25:32;10.80;99.90
39347;DHT22;26262;49.836;6.632;2024-02-23T13:27:58;11.50;99.90
39347;DHT22;26262;49.836;6.632;2024-02-23T13:30:23;12.10;99.90
39347;DHT22;26262;49.836;6.632;2024-02-23T13:32:49;11.90;99.90
39347;DHT22;26262;49.836;6.632;2024-02-23T13:35:14;11.10;99.90
39347;DHT22;26262;49.836;6.632;2024-02-23T13:37:41;10.60;99.90
39347;DHT22;26262;49.836;6.632;2024-02-23T13:40:08;10.30;99.90
39347;DHT22;26262;49.836;6.632;2024-02-23T13:42:35;10.20;99.90
39347;DHT22;26262;49.836;6.632;2024-02-23T13:45:00;10.30;99.90
39347;DHT22;26262;49.836;6.632;2024-02-23T13:47:26;10.10;99.90
39347;DHT22;26262;49.836;6.632;2024-02-23T13:49:51;10.10;99.90
39347;DHT22;26262;49.836;6.632;2024-02-23T13:52:17;10.60;99.90
39347;DHT22;26262;49.836;6.632;2024-02-23T13:54:42;11.10;99.90
39347;DHT22;26262;49.836;6.632;2024-02-23T13:57:08;11.40;99.90
39347;DHT22;26262;49.836;6.632;2024-02-23T13:59:34;11.20;99.90
39347;DHT22;26262;49.836;6.632;2024-02-23T14:02:00;10.50;99.90
39347;DHT22;26262;49.836;6.632;2024-02-23T14:04:25;11.00;99.90
39347;DHT22;26262;49.836;6.632;2024-02-23T14:06:51;11.50;99.90
39347;DHT22;26262;49.836;6.632;2024-02-23T14:09:17;11.90;99.90
39347;DHT22;26262;49.836;6.632;2024-02-23T14:11:42;12.30;99.90
39347;DHT22;26262;49.836;6.632;2024-02-23T14:14:08;12.50;99.90
39347;DHT22;26262;49.836;6.632;2024-02-23T14:16:34;12.30;99.90
39347;DHT22;26262;49.836;6.632;2024-02-23T14:19:00;11.80;99.90
39347;DHT22;26262;49.836;6.632;2024-02-23T14:21:25;12.10;99.90
39347;DHT22;26262;49.836;6.632;2024-02-23T14:23:51;12.40;99.90
39347;DHT22;26262;49.836;6.632;2024-02-23T14:26:17;12.90;99.90
39347;DHT22;26262;49.836;6.632;2024-02-23T14:28:42;13.40;99.90
39347;DHT22;26262;49.836;6.632;2024-02-23T14:31:08;13.50;99.90
39347;DHT22;26262;49.836;6.632;2024-02-23T14:33:34;13.10;99.90
39347;DHT22;26262;49.836;6.632;2024-02-23T14:35:59;12.70;99.90
39347;DHT22;26262;49.836;6.632;2024-02-23T14:38:25;13.00;99.90
39347;DHT22;26262;49.836;6.632;2024-02-23T14:40:51;13.00;99.90
39347;DHT22;26262;49.836;6.632;2024-02-23T14:43:16;12.00;99.90
39347;DHT22;26262;49.836;6.632;2024-02-23T14:45:42;11.30;99.90
39347;DHT22;26262;49.836;6.632;2024-02-23T14:48:07;10.50;99.90
39347;DHT22;26262;49.836;6.632;2024-02-23T14:50:33;10.40;99.90
39347;DHT22;26262;49.836;6.632;2024-02-23T14:52:59;10.50;99.90
39347;DHT22;26262;49.836;6.632;2024-02-23T14:55:25;11.00;99.90
39347;DHT22;26262;49.836;6.632;2024-02-23T14:57:50;11.70;99.90
39347;DHT22;26262;49.836;6.632;2024-02-23T15:00:16;12.30;99.90
39347;DHT22;26262;49.836;6.632;2024-02-23T15:02:42;12.30;99.90
39347;DHT22;26262;49.836;6.632;2024-02-23T15:05:08;12.40;99.90
39347;DHT22;26262;49.836;6.632;2024-02-23T15:07:34;12.40;99.90
39347;DHT22;26262;49.836;6.632;2024-02-23T15:10:01;12.70;99.90
39347;DHT22;26262;49.836;6.632;2024-02-23T15:12:31;12.70;99.90
39347;DHT22;26262;49.836;6.632;2024-02-23T15:14:57;12.80;99.90
39347;DHT22;26262;49.836;6.632;2024-02-23T15:17:22;12.80;99.90
39347;DHT22;26262;49.836;6.632;2024-02-23T15:19:48;12.30;99.90
39347;DHT22;26262;49.836;6.632;2024-02-23T15:22:13;11.70;99.90
39347;DHT22;26262;49.836;6.632;2024-02-23T15:24:41;11.00;99.90
39347;DHT22;26262;49.836;6.632;2024-02-23T15:27:08;10.30;99.90
39347;DHT22;26262;49.836;6.632;2024-02-23T15:29:34;9.90;99.90
39347;DHT22;26262;49.836;6.632;2024-02-23T15:32:00;9.60;99.90
39347;DHT22;26262;49.836;6.632;2024-02-23T15:34:26;9.50;99.90
39347;DHT22;26262;49.836;6.632;2024-02-23T15:36:51;9.40;99.90
39347;DHT22;26262;49.836;6.632;2024-02-23T15:39:17;9.30;99.90